sensor_id;sensor_type;location;lat;lon;timestamp;P1;durP1;ratioP1;P2;durP2;ratioP2
45252;SDS011;63171;50.520;30.486;2023-03-23T00:00:31;28.65;;;21.67;;
45252;SDS011;63171;50.520;30.486;2023-03-23T00:01:22;34.17;;;24.05;;
45252;SDS011;63171;50.520;30.486;2023-03-23T00:02:15;30.40;;;24.13;;
45252;SDS011;63171;50.520;30.486;2023-03-23T00:03:05;31.88;;;25.85;;
45252;SDS011;63171;50.520;30.486;2023-03-23T00:03:56;28.25;;;22.88;;
45252;SDS011;63171;50.520;30.486;2023-03-23T00:04:47;32.92;;;23.95;;
45252;SDS011;63171;50.520;30.486;2023-03-23T00:05:38;30.88;;;23.60;;
45252;SDS011;63171;50.520;30.486;2023-03-23T00:06:30;27.40;;;23.15;;
45252;SDS011;63171;50.520;30.486;2023-03-23T00:07:23;34.25;;;22.58;;
45252;SDS011;63171;50.520;30.486;2023-03-23T00:08:16;30.60;;;24.30;;
45252;SDS011;63171;50.520;30.486;2023-03-23T00:09:09;32.28;;;24.65;;
45252;SDS011;63171;50.520;30.486;2023-03-23T00:10:00;31.40;;;23.77;;
45252;SDS011;63171;50.520;30.486;2023-03-23T00:10:51;33.75;;;24.88;;
45252;SDS011;63171;50.520;30.486;2023-03-23T00:11:42;37.20;;;25.73;;
45252;SDS011;63171;50.520;30.486;2023-03-23T00:12:32;32.22;;;24.75;;
45252;SDS011;63171;50.520;30.486;2023-03-23T00:13:22;33.90;;;22.65;;
45252;SDS011;63171;50.520;30.486;2023-03-23T00:14:12;33.67;;;25.08;;
45252;SDS011;63171;50.520;30.486;2023-03-23T00:15:04;31.45;;;25.55;;
45252;SDS011;63171;50.520;30.486;2023-03-23T00:15:55;29.50;;;23.20;;
45252;SDS011;63171;50.520;30.486;2023-03-23T00:16:49;31.70;;;22.75;;
45252;SDS011;63171;50.520;30.486;2023-03-23T00:17:40;25.80;;;21.77;;
45252;SDS011;63171;50.520;30.486;2023-03-23T00:18:30;25.27;;;21.92;;
45252;SDS011;63171;50.520;30.486;2023-03-23T00:19:20;32.47;;;21.67;;
45252;SDS011;63171;50.520;30.486;2023-03-23T00:20:11;27.77;;;20.80;;
45252;SDS011;63171;50.520;30.486;2023-03-23T00:21:02;27.88;;;23.35;;
45252;SDS011;63171;50.520;30.486;2023-03-23T00:21:52;26.77;;;23.95;;
45252;SDS011;63171;50.520;30.486;2023-03-23T00:22:45;28.38;;;23.70;;
45252;SDS011;63171;50.520;30.486;2023-03-23T00:23:34;34.20;;;25.23;;
45252;SDS011;63171;50.520;30.486;2023-03-23T00:24:25;28.70;;;24.67;;
45252;SDS011;63171;50.520;30.486;2023-03-23T00:25:15;28.17;;;24.70;;
45252;SDS011;63171;50.520;30.486;2023-03-23T00:26:06;31.98;;;23.63;;
45252;SDS011;63171;50.520;30.486;2023-03-23T00:26:57;31.42;;;23.55;;
45252;SDS011;63171;50.520;30.486;2023-03-23T00:27:48;30.20;;;23.35;;
45252;SDS011;63171;50.520;30.486;2023-03-23T00:28:37;29.48;;;22.50;;
45252;SDS011;63171;50.520;30.486;2023-03-23T00:29:29;27.27;;;23.25;;
45252;SDS011;63171;50.520;30.486;2023-03-23T00:30:18;29.92;;;23.25;;
45252;SDS011;63171;50.520;30.486;2023-03-23T00:31:09;28.48;;;22.30;;
45252;SDS011;63171;50.520;30.486;2023-03-23T00:31:59;29.80;;;23.33;;
45252;SDS011;63171;50.520;30.486;2023-03-23T00:32:55;29.50;;;22.42;;
45252;SDS011;63171;50.520;30.486;2023-03-23T00:33:45;27.60;;;21.92;;
45252;SDS011;63171;50.520;30.486;2023-03-23T00:34:35;29.77;;;24.80;;
45252;SDS011;63171;50.520;30.486;2023-03-23T00:35:25;31.40;;;24.20;;
45252;SDS011;63171;50.520;30.486;2023-03-23T00:36:16;31.88;;;23.38;;
45252;SDS011;63171;50.520;30.486;2023-03-23T00:37:09;31.20;;;23.67;;
45252;SDS011;63171;50.520;30.486;2023-03-23T00:38:01;31.10;;;23.67;;
45252;SDS011;63171;50.520;30.486;2023-03-23T00:38:53;27.75;;;22.67;;
45252;SDS011;63171;50.520;30.486;2023-03-23T00:39:47;33.67;;;24.05;;
45252;SDS011;63171;50.520;30.486;2023-03-23T00:40:38;30.38;;;23.08;;
45252;SDS011;63171;50.520;30.486;2023-03-23T00:41:28;29.95;;;23.42;;
45252;SDS011;63171;50.520;30.486;2023-03-23T00:42:18;30.83;;;24.50;;
45252;SDS011;63171;50.520;30.486;2023-03-23T00:43:08;31.23;;;24.85;;
45252;SDS011;63171;50.520;30.486;2023-03-23T00:44:02;29.50;;;24.77;;
45252;SDS011;63171;50.520;30.486;2023-03-23T00:44:52;30.48;;;23.70;;
45252;SDS011;63171;50.520;30.486;2023-03-23T00:45:49;31.80;;;24.75;;
45252;SDS011;63171;50.520;30.486;2023-03-23T00:46:42;31.85;;;22.73;;
45252;SDS011;63171;50.520;30.486;2023-03-23T00:47:34;37.00;;;25.45;;
45252;SDS011;63171;50.520;30.486;2023-03-23T00:48:27;30.92;;;23.23;;
45252;SDS011;63171;50.520;30.486;2023-03-23T00:49:22;29.90;;;23.20;;
45252;SDS011;63171;50.520;30.486;2023-03-23T00:50:14;30.60;;;24.08;;
45252;SDS011;63171;50.520;30.486;2023-03-23T00:51:06;28.52;;;25.27;;
45252;SDS011;63171;50.520;30.486;2023-03-23T00:51:59;25.65;;;23.05;;
45252;SDS011;63171;50.520;30.486;2023-03-23T00:52:50;26.45;;;23.38;;
45252;SDS011;63171;50.520;30.486;2023-03-23T00:53:43;27.73;;;23.73;;
45252;SDS011;63171;50.520;30.486;2023-03-23T00:54:33;31.02;;;24.15;;
45252;SDS011;63171;50.520;30.486;2023-03-23T00:55:24;26.80;;;23.95;;
45252;SDS011;63171;50.520;30.486;2023-03-23T00:56:15;28.40;;;24.63;;
45252;SDS011;63171;50.520;30.486;2023-03-23T00:57:05;29.77;;;23.85;;
45252;SDS011;63171;50.520;30.486;2023-03-23T00:57:56;32.92;;;25.67;;
45252;SDS011;63171;50.520;30.486;2023-03-23T00:58:46;28.42;;;24.80;;
45252;SDS011;63171;50.520;30.486;2023-03-23T00:59:37;29.88;;;24.92;;
45252;SDS011;63171;50.520;30.486;2023-03-23T01:02:12;28.30;;;22.27;;
45252;SDS011;63171;50.520;30.486;2023-03-23T01:03:04;32.65;;;26.52;;
45252;SDS011;63171;50.520;30.486;2023-03-23T01:03:55;32.10;;;25.75;;
45252;SDS011;63171;50.520;30.486;2023-03-23T01:04:50;28.60;;;24.25;;
45252;SDS011;63171;50.520;30.486;2023-03-23T01:05:41;30.58;;;24.60;;
45252;SDS011;63171;50.520;30.486;2023-03-23T01:06:32;27.77;;;24.80;;
45252;SDS011;63171;50.520;30.486;2023-03-23T01:07:25;35.47;;;24.23;;
45252;SDS011;63171;50.520;30.486;2023-03-23T01:08:17;28.58;;;24.15;;
45252;SDS011;63171;50.520;30.486;2023-03-23T01:09:10;36.28;;;28.00;;
45252;SDS011;63171;50.520;30.486;2023-03-23T01:10:04;32.92;;;26.17;;
45252;SDS011;63171;50.520;30.486;2023-03-23T01:11:00;38.15;;;27.23;;
45252;SDS011;63171;50.520;30.486;2023-03-23T01:11:52;33.53;;;25.30;;
45252;SDS011;63171;50.520;30.486;2023-03-23T01:12:44;30.92;;;26.05;;
45252;SDS011;63171;50.520;30.486;2023-03-23T01:13:35;39.50;;;27.00;;
45252;SDS011;63171;50.520;30.486;2023-03-23T01:14:25;35.45;;;26.75;;
45252;SDS011;63171;50.520;30.486;2023-03-23T01:15:16;38.40;;;27.85;;
45252;SDS011;63171;50.520;30.486;2023-03-23T01:16:06;30.40;;;25.95;;
45252;SDS011;63171;50.520;30.486;2023-03-23T01:16:58;37.75;;;26.98;;
45252;SDS011;63171;50.520;30.486;2023-03-23T01:17:48;33.03;;;26.20;;
45252;SDS011;63171;50.520;30.486;2023-03-23T01:18:39;33.35;;;27.70;;
45252;SDS011;63171;50.520;30.486;2023-03-23T01:19:29;31.85;;;25.85;;
45252;SDS011;63171;50.520;30.486;2023-03-23T01:20:20;32.85;;;25.52;;
45252;SDS011;63171;50.520;30.486;2023-03-23T01:21:10;30.95;;;25.92;;
45252;SDS011;63171;50.520;30.486;2023-03-23T01:22:02;33.05;;;26.48;;
45252;SDS011;63171;50.520;30.486;2023-03-23T01:22:52;30.33;;;25.45;;
45252;SDS011;63171;50.520;30.486;2023-03-23T01:23:49;39.65;;;27.23;;
45252;SDS011;63171;50.520;30.486;2023-03-23T01:24:40;32.00;;;28.23;;
45252;SDS011;63171;50.520;30.486;2023-03-23T01:25:32;30.40;;;25.60;;
45252;SDS011;63171;50.520;30.486;2023-03-23T01:26:26;31.48;;;26.33;;
45252;SDS011;63171;50.520;30.486;2023-03-23T01:27:17;28.80;;;25.75;;
45252;SDS011;63171;50.520;30.486;2023-03-23T01:28:07;31.25;;;25.33;;
45252;SDS011;63171;50.520;30.486;2023-03-23T01:28:59;28.38;;;25.13;;
45252;SDS011;63171;50.520;30.486;2023-03-23T01:29:50;27.35;;;24.13;;
45252;SDS011;63171;50.520;30.486;2023-03-23T01:30:40;35.83;;;26.90;;
45252;SDS011;63171;50.520;30.486;2023-03-23T01:31:30;28.65;;;24.60;;
45252;SDS011;63171;50.520;30.486;2023-03-23T01:32:21;33.28;;;26.13;;
45252;SDS011;63171;50.520;30.486;2023-03-23T01:33:11;29.08;;;24.85;;
45252;SDS011;63171;50.520;30.486;2023-03-23T01:34:02;33.08;;;25.20;;
45252;SDS011;63171;50.520;30.486;2023-03-23T01:34:52;34.15;;;26.58;;
45252;SDS011;63171;50.520;30.486;2023-03-23T01:35:43;29.40;;;25.48;;
45252;SDS011;63171;50.520;30.486;2023-03-23T01:36:33;32.28;;;26.70;;
45252;SDS011;63171;50.520;30.486;2023-03-23T01:37:25;33.38;;;25.80;;
45252;SDS011;63171;50.520;30.486;2023-03-23T01:38:17;27.98;;;24.58;;
45252;SDS011;63171;50.520;30.486;2023-03-23T01:39:09;32.03;;;25.45;;
45252;SDS011;63171;50.520;30.486;2023-03-23T01:40:00;27.48;;;24.58;;
45252;SDS011;63171;50.520;30.486;2023-03-23T01:40:51;35.30;;;28.10;;
45252;SDS011;63171;50.520;30.486;2023-03-23T01:41:40;35.97;;;27.55;;
45252;SDS011;63171;50.520;30.486;2023-03-23T01:42:34;31.75;;;25.73;;
45252;SDS011;63171;50.520;30.486;2023-03-23T01:43:28;35.85;;;27.13;;
45252;SDS011;63171;50.520;30.486;2023-03-23T01:45:46;31.35;;;25.88;;
45252;SDS011;63171;50.520;30.486;2023-03-23T01:46:37;38.55;;;27.55;;
45252;SDS011;63171;50.520;30.486;2023-03-23T01:47:27;30.65;;;26.17;;
45252;SDS011;63171;50.520;30.486;2023-03-23T01:48:20;31.58;;;26.33;;
45252;SDS011;63171;50.520;30.486;2023-03-23T01:49:13;34.40;;;26.73;;
45252;SDS011;63171;50.520;30.486;2023-03-23T01:50:08;27.40;;;24.50;;
45252;SDS011;63171;50.520;30.486;2023-03-23T01:51:54;30.13;;;25.95;;
45252;SDS011;63171;50.520;30.486;2023-03-23T01:52:47;37.60;;;26.60;;
45252;SDS011;63171;50.520;30.486;2023-03-23T01:53:38;27.40;;;23.92;;
45252;SDS011;63171;50.520;30.486;2023-03-23T01:54:32;31.40;;;25.50;;
45252;SDS011;63171;50.520;30.486;2023-03-23T01:55:27;29.75;;;25.17;;
45252;SDS011;63171;50.520;30.486;2023-03-23T01:56:19;29.10;;;25.67;;
45252;SDS011;63171;50.520;30.486;2023-03-23T01:57:15;33.47;;;26.88;;
45252;SDS011;63171;50.520;30.486;2023-03-23T01:58:08;30.95;;;27.55;;
45252;SDS011;63171;50.520;30.486;2023-03-23T01:59:00;35.38;;;26.33;;
45252;SDS011;63171;50.520;30.486;2023-03-23T01:59:51;34.42;;;27.20;;
45252;SDS011;63171;50.520;30.486;2023-03-23T02:00:44;32.25;;;26.63;;
45252;SDS011;63171;50.520;30.486;2023-03-23T02:01:36;38.28;;;29.48;;
45252;SDS011;63171;50.520;30.486;2023-03-23T02:02:32;34.50;;;28.85;;
45252;SDS011;63171;50.520;30.486;2023-03-23T02:03:24;31.40;;;26.00;;
45252;SDS011;63171;50.520;30.486;2023-03-23T02:04:15;32.72;;;27.98;;
45252;SDS011;63171;50.520;30.486;2023-03-23T02:05:08;32.60;;;27.45;;
45252;SDS011;63171;50.520;30.486;2023-03-23T02:06:05;30.17;;;26.98;;
45252;SDS011;63171;50.520;30.486;2023-03-23T02:07:01;34.90;;;27.63;;
45252;SDS011;63171;50.520;30.486;2023-03-23T02:07:52;30.17;;;26.88;;
45252;SDS011;63171;50.520;30.486;2023-03-23T02:08:43;38.63;;;28.25;;
45252;SDS011;63171;50.520;30.486;2023-03-23T02:09:35;32.40;;;26.88;;
45252;SDS011;63171;50.520;30.486;2023-03-23T02:10:26;37.58;;;28.92;;
45252;SDS011;63171;50.520;30.486;2023-03-23T02:11:17;35.53;;;28.88;;
45252;SDS011;63171;50.520;30.486;2023-03-23T02:12:10;32.90;;;28.23;;
45252;SDS011;63171;50.520;30.486;2023-03-23T02:13:02;33.47;;;26.67;;
45252;SDS011;63171;50.520;30.486;2023-03-23T02:13:54;32.90;;;27.38;;
45252;SDS011;63171;50.520;30.486;2023-03-23T02:14:45;37.05;;;28.75;;
45252;SDS011;63171;50.520;30.486;2023-03-23T02:15:44;31.70;;;26.98;;
45252;SDS011;63171;50.520;30.486;2023-03-23T02:16:40;30.20;;;25.83;;
45252;SDS011;63171;50.520;30.486;2023-03-23T02:17:35;30.13;;;26.70;;
45252;SDS011;63171;50.520;30.486;2023-03-23T02:18:35;29.80;;;26.27;;
45252;SDS011;63171;50.520;30.486;2023-03-23T02:19:39;32.08;;;26.15;;
45252;SDS011;63171;50.520;30.486;2023-03-23T02:20:48;29.63;;;26.30;;
45252;SDS011;63171;50.520;30.486;2023-03-23T02:22:03;29.25;;;24.35;;
45252;SDS011;63171;50.520;30.486;2023-03-23T02:23:14;32.13;;;24.80;;
45252;SDS011;63171;50.520;30.486;2023-03-23T02:24:38;27.58;;;24.67;;
45252;SDS011;63171;50.520;30.486;2023-03-23T02:25:53;32.95;;;26.58;;
45252;SDS011;63171;50.520;30.486;2023-03-23T02:26:56;30.17;;;26.55;;
45252;SDS011;63171;50.520;30.486;2023-03-23T02:27:56;27.77;;;24.08;;
45252;SDS011;63171;50.520;30.486;2023-03-23T02:29:08;30.50;;;25.52;;
45252;SDS011;63171;50.520;30.486;2023-03-23T02:30:25;30.80;;;24.88;;
45252;SDS011;63171;50.520;30.486;2023-03-23T02:31:30;34.97;;;27.05;;
45252;SDS011;63171;50.520;30.486;2023-03-23T02:32:40;27.90;;;25.00;;
45252;SDS011;63171;50.520;30.486;2023-03-23T02:33:47;26.52;;;23.33;;
45252;SDS011;63171;50.520;30.486;2023-03-23T02:34:42;29.88;;;24.80;;
45252;SDS011;63171;50.520;30.486;2023-03-23T02:35:36;30.23;;;26.38;;
45252;SDS011;63171;50.520;30.486;2023-03-23T02:36:29;29.60;;;24.75;;
45252;SDS011;63171;50.520;30.486;2023-03-23T02:37:27;29.10;;;24.95;;
45252;SDS011;63171;50.520;30.486;2023-03-23T02:38:23;32.95;;;26.50;;
45252;SDS011;63171;50.520;30.486;2023-03-23T02:39:22;27.23;;;24.30;;
45252;SDS011;63171;50.520;30.486;2023-03-23T02:40:15;28.58;;;25.25;;
45252;SDS011;63171;50.520;30.486;2023-03-23T02:41:09;27.27;;;24.38;;
45252;SDS011;63171;50.520;30.486;2023-03-23T02:42:01;28.88;;;25.58;;
45252;SDS011;63171;50.520;30.486;2023-03-23T02:42:55;28.65;;;25.55;;
45252;SDS011;63171;50.520;30.486;2023-03-23T02:43:47;29.08;;;25.27;;
45252;SDS011;63171;50.520;30.486;2023-03-23T02:44:40;29.52;;;26.33;;
45252;SDS011;63171;50.520;30.486;2023-03-23T02:45:32;34.15;;;26.15;;
45252;SDS011;63171;50.520;30.486;2023-03-23T02:46:24;31.58;;;25.45;;
45252;SDS011;63171;50.520;30.486;2023-03-23T02:47:16;30.73;;;26.30;;
45252;SDS011;63171;50.520;30.486;2023-03-23T02:48:09;30.25;;;25.38;;
45252;SDS011;63171;50.520;30.486;2023-03-23T02:49:03;28.15;;;25.17;;
45252;SDS011;63171;50.520;30.486;2023-03-23T02:49:57;28.10;;;24.80;;
45252;SDS011;63171;50.520;30.486;2023-03-23T02:50:49;30.10;;;25.50;;
45252;SDS011;63171;50.520;30.486;2023-03-23T02:51:43;28.27;;;25.05;;
45252;SDS011;63171;50.520;30.486;2023-03-23T02:52:35;26.67;;;23.50;;
45252;SDS011;63171;50.520;30.486;2023-03-23T02:53:29;28.45;;;24.10;;
45252;SDS011;63171;50.520;30.486;2023-03-23T02:54:22;27.40;;;24.58;;
45252;SDS011;63171;50.520;30.486;2023-03-23T02:55:15;31.23;;;25.67;;
45252;SDS011;63171;50.520;30.486;2023-03-23T02:56:07;28.17;;;25.17;;
45252;SDS011;63171;50.520;30.486;2023-03-23T02:57:01;33.67;;;26.95;;
45252;SDS011;63171;50.520;30.486;2023-03-23T02:57:53;31.45;;;24.70;;
45252;SDS011;63171;50.520;30.486;2023-03-23T02:58:45;29.30;;;26.15;;
45252;SDS011;63171;50.520;30.486;2023-03-23T02:59:35;28.92;;;24.95;;
45252;SDS011;63171;50.520;30.486;2023-03-23T03:00:25;30.13;;;25.00;;
45252;SDS011;63171;50.520;30.486;2023-03-23T03:01:16;29.98;;;24.27;;
45252;SDS011;63171;50.520;30.486;2023-03-23T03:02:38;27.30;;;22.73;;
45252;SDS011;63171;50.520;30.486;2023-03-23T03:03:32;31.10;;;24.70;;
45252;SDS011;63171;50.520;30.486;2023-03-23T03:04:24;30.20;;;24.65;;
45252;SDS011;63171;50.520;30.486;2023-03-23T03:05:20;32.17;;;25.75;;
45252;SDS011;63171;50.520;30.486;2023-03-23T03:06:21;28.35;;;23.92;;
45252;SDS011;63171;50.520;30.486;2023-03-23T03:07:28;29.25;;;25.30;;
45252;SDS011;63171;50.520;30.486;2023-03-23T03:08:27;27.95;;;24.25;;
45252;SDS011;63171;50.520;30.486;2023-03-23T03:09:26;27.80;;;23.88;;
45252;SDS011;63171;50.520;30.486;2023-03-23T03:10:23;30.67;;;25.75;;
45252;SDS011;63171;50.520;30.486;2023-03-23T03:11:18;29.95;;;25.45;;
45252;SDS011;63171;50.520;30.486;2023-03-23T03:12:12;29.83;;;25.73;;
45252;SDS011;63171;50.520;30.486;2023-03-23T03:13:11;30.20;;;26.98;;
45252;SDS011;63171;50.520;30.486;2023-03-23T03:14:06;30.08;;;25.77;;
45252;SDS011;63171;50.520;30.486;2023-03-23T03:15:06;31.33;;;24.98;;
45252;SDS011;63171;50.520;30.486;2023-03-23T03:16:05;30.15;;;26.60;;
45252;SDS011;63171;50.520;30.486;2023-03-23T03:17:03;28.08;;;25.08;;
45252;SDS011;63171;50.520;30.486;2023-03-23T03:18:02;28.92;;;25.65;;
45252;SDS011;63171;50.520;30.486;2023-03-23T03:19:02;31.38;;;26.48;;
45252;SDS011;63171;50.520;30.486;2023-03-23T03:19:59;28.90;;;24.77;;
45252;SDS011;63171;50.520;30.486;2023-03-23T03:20:57;33.40;;;28.33;;
45252;SDS011;63171;50.520;30.486;2023-03-23T03:21:51;28.25;;;25.25;;
45252;SDS011;63171;50.520;30.486;2023-03-23T03:22:49;32.65;;;26.25;;
45252;SDS011;63171;50.520;30.486;2023-03-23T03:23:44;32.45;;;27.25;;
45252;SDS011;63171;50.520;30.486;2023-03-23T03:24:38;31.25;;;27.23;;
45252;SDS011;63171;50.520;30.486;2023-03-23T03:25:33;29.33;;;26.08;;
45252;SDS011;63171;50.520;30.486;2023-03-23T03:26:25;29.67;;;26.17;;
45252;SDS011;63171;50.520;30.486;2023-03-23T03:27:22;32.40;;;26.95;;
45252;SDS011;63171;50.520;30.486;2023-03-23T03:28:28;29.20;;;25.50;;
45252;SDS011;63171;50.520;30.486;2023-03-23T03:29:20;31.88;;;26.23;;
45252;SDS011;63171;50.520;30.486;2023-03-23T03:30:15;33.90;;;27.30;;
45252;SDS011;63171;50.520;30.486;2023-03-23T03:31:10;30.10;;;26.90;;
45252;SDS011;63171;50.520;30.486;2023-03-23T03:32:01;31.92;;;26.92;;
45252;SDS011;63171;50.520;30.486;2023-03-23T03:32:55;32.55;;;27.95;;
45252;SDS011;63171;50.520;30.486;2023-03-23T03:33:49;34.03;;;26.98;;
45252;SDS011;63171;50.520;30.486;2023-03-23T03:34:40;34.63;;;27.27;;
45252;SDS011;63171;50.520;30.486;2023-03-23T03:35:35;31.92;;;28.45;;
45252;SDS011;63171;50.520;30.486;2023-03-23T03:36:27;34.45;;;27.70;;
45252;SDS011;63171;50.520;30.486;2023-03-23T03:37:24;31.13;;;26.42;;
45252;SDS011;63171;50.520;30.486;2023-03-23T03:38:15;32.38;;;26.52;;
45252;SDS011;63171;50.520;30.486;2023-03-23T03:39:07;30.20;;;26.67;;
45252;SDS011;63171;50.520;30.486;2023-03-23T03:39:59;30.35;;;27.13;;
45252;SDS011;63171;50.520;30.486;2023-03-23T03:40:51;29.58;;;26.40;;
45252;SDS011;63171;50.520;30.486;2023-03-23T03:41:42;32.17;;;27.17;;
45252;SDS011;63171;50.520;30.486;2023-03-23T03:42:34;30.20;;;26.92;;
45252;SDS011;63171;50.520;30.486;2023-03-23T03:43:23;30.55;;;26.92;;
45252;SDS011;63171;50.520;30.486;2023-03-23T03:44:14;31.92;;;28.20;;
45252;SDS011;63171;50.520;30.486;2023-03-23T03:45:05;35.30;;;28.00;;
45252;SDS011;63171;50.520;30.486;2023-03-23T03:45:57;32.08;;;28.60;;
45252;SDS011;63171;50.520;30.486;2023-03-23T03:46:47;31.17;;;27.17;;
45252;SDS011;63171;50.520;30.486;2023-03-23T03:47:37;32.38;;;27.67;;
45252;SDS011;63171;50.520;30.486;2023-03-23T03:48:27;37.67;;;27.85;;
45252;SDS011;63171;50.520;30.486;2023-03-23T03:49:17;36.75;;;27.00;;
45252;SDS011;63171;50.520;30.486;2023-03-23T03:50:08;30.73;;;26.67;;
45252;SDS011;63171;50.520;30.486;2023-03-23T03:51:00;30.55;;;27.30;;
45252;SDS011;63171;50.520;30.486;2023-03-23T03:51:55;30.42;;;26.17;;
45252;SDS011;63171;50.520;30.486;2023-03-23T03:52:49;32.45;;;28.15;;
45252;SDS011;63171;50.520;30.486;2023-03-23T03:53:39;31.33;;;27.02;;
45252;SDS011;63171;50.520;30.486;2023-03-23T03:54:29;32.55;;;25.75;;
45252;SDS011;63171;50.520;30.486;2023-03-23T03:55:20;31.20;;;27.60;;
45252;SDS011;63171;50.520;30.486;2023-03-23T03:56:11;31.23;;;27.48;;
45252;SDS011;63171;50.520;30.486;2023-03-23T03:57:08;36.05;;;27.75;;
45252;SDS011;63171;50.520;30.486;2023-03-23T03:58:03;34.47;;;26.55;;
45252;SDS011;63171;50.520;30.486;2023-03-23T03:59:14;32.53;;;27.55;;
45252;SDS011;63171;50.520;30.486;2023-03-23T04:00:26;32.90;;;26.90;;
45252;SDS011;63171;50.520;30.486;2023-03-23T04:01:18;32.65;;;28.02;;
45252;SDS011;63171;50.520;30.486;2023-03-23T04:02:10;31.42;;;28.05;;
45252;SDS011;63171;50.520;30.486;2023-03-23T04:03:03;29.73;;;26.45;;
45252;SDS011;63171;50.520;30.486;2023-03-23T04:04:10;31.23;;;27.88;;
45252;SDS011;63171;50.520;30.486;2023-03-23T04:05:00;34.05;;;28.55;;
45252;SDS011;63171;50.520;30.486;2023-03-23T04:05:53;32.65;;;26.85;;
45252;SDS011;63171;50.520;30.486;2023-03-23T04:07:05;34.33;;;29.42;;
45252;SDS011;63171;50.520;30.486;2023-03-23T04:07:55;35.08;;;29.98;;
45252;SDS011;63171;50.520;30.486;2023-03-23T04:08:53;36.88;;;29.73;;
45252;SDS011;63171;50.520;30.486;2023-03-23T04:09:44;37.13;;;28.73;;
45252;SDS011;63171;50.520;30.486;2023-03-23T04:10:38;32.88;;;29.38;;
45252;SDS011;63171;50.520;30.486;2023-03-23T04:11:28;35.60;;;28.35;;
45252;SDS011;63171;50.520;30.486;2023-03-23T04:12:35;33.78;;;26.42;;
45252;SDS011;63171;50.520;30.486;2023-03-23T04:13:44;32.75;;;26.85;;
45252;SDS011;63171;50.520;30.486;2023-03-23T04:14:45;39.65;;;31.23;;
45252;SDS011;63171;50.520;30.486;2023-03-23T04:15:35;33.78;;;27.48;;
45252;SDS011;63171;50.520;30.486;2023-03-23T04:16:28;31.63;;;27.90;;
45252;SDS011;63171;50.520;30.486;2023-03-23T04:17:20;33.90;;;28.02;;
45252;SDS011;63171;50.520;30.486;2023-03-23T04:18:10;32.78;;;27.55;;
45252;SDS011;63171;50.520;30.486;2023-03-23T04:19:01;34.55;;;30.23;;
45252;SDS011;63171;50.520;30.486;2023-03-23T04:19:52;30.98;;;27.75;;
45252;SDS011;63171;50.520;30.486;2023-03-23T04:20:47;33.88;;;27.98;;
45252;SDS011;63171;50.520;30.486;2023-03-23T04:21:41;36.28;;;30.65;;
45252;SDS011;63171;50.520;30.486;2023-03-23T04:22:32;36.38;;;28.58;;
45252;SDS011;63171;50.520;30.486;2023-03-23T04:23:25;34.55;;;29.50;;
45252;SDS011;63171;50.520;30.486;2023-03-23T04:24:15;32.88;;;27.88;;
45252;SDS011;63171;50.520;30.486;2023-03-23T04:25:11;31.75;;;26.98;;
45252;SDS011;63171;50.520;30.486;2023-03-23T04:26:04;36.38;;;27.63;;
45252;SDS011;63171;50.520;30.486;2023-03-23T04:27:04;34.75;;;28.65;;
45252;SDS011;63171;50.520;30.486;2023-03-23T04:27:54;34.10;;;28.00;;
45252;SDS011;63171;50.520;30.486;2023-03-23T04:28:52;33.20;;;28.67;;
45252;SDS011;63171;50.520;30.486;2023-03-23T04:29:56;33.65;;;28.35;;
45252;SDS011;63171;50.520;30.486;2023-03-23T04:31:02;31.70;;;27.80;;
45252;SDS011;63171;50.520;30.486;2023-03-23T04:31:53;33.15;;;27.92;;
45252;SDS011;63171;50.520;30.486;2023-03-23T04:32:57;33.33;;;28.10;;
45252;SDS011;63171;50.520;30.486;2023-03-23T04:33:50;38.47;;;28.90;;
45252;SDS011;63171;50.520;30.486;2023-03-23T04:34:44;30.65;;;27.27;;
45252;SDS011;63171;50.520;30.486;2023-03-23T04:35:34;37.08;;;29.50;;
45252;SDS011;63171;50.520;30.486;2023-03-23T04:36:33;34.22;;;27.17;;
45252;SDS011;63171;50.520;30.486;2023-03-23T04:37:28;37.67;;;28.75;;
45252;SDS011;63171;50.520;30.486;2023-03-23T04:38:25;32.58;;;28.52;;
45252;SDS011;63171;50.520;30.486;2023-03-23T04:39:22;33.05;;;28.98;;
45252;SDS011;63171;50.520;30.486;2023-03-23T04:40:14;37.55;;;30.98;;
45252;SDS011;63171;50.520;30.486;2023-03-23T04:41:10;40.40;;;31.77;;
45252;SDS011;63171;50.520;30.486;2023-03-23T04:42:15;36.10;;;30.55;;
45252;SDS011;63171;50.520;30.486;2023-03-23T04:43:36;31.40;;;26.90;;
45252;SDS011;63171;50.520;30.486;2023-03-23T04:44:49;31.23;;;27.58;;
45252;SDS011;63171;50.520;30.486;2023-03-23T04:45:51;34.08;;;28.83;;
45252;SDS011;63171;50.520;30.486;2023-03-23T04:46:45;37.42;;;27.45;;
45252;SDS011;63171;50.520;30.486;2023-03-23T04:47:40;31.88;;;28.10;;
45252;SDS011;63171;50.520;30.486;2023-03-23T04:48:42;31.40;;;26.65;;
45252;SDS011;63171;50.520;30.486;2023-03-23T04:49:40;35.63;;;28.55;;
45252;SDS011;63171;50.520;30.486;2023-03-23T04:50:38;32.20;;;27.23;;
45252;SDS011;63171;50.520;30.486;2023-03-23T04:51:38;35.55;;;29.15;;
45252;SDS011;63171;50.520;30.486;2023-03-23T04:52:40;36.28;;;27.80;;
45252;SDS011;63171;50.520;30.486;2023-03-23T04:53:36;34.22;;;27.98;;
45252;SDS011;63171;50.520;30.486;2023-03-23T04:54:27;31.40;;;27.80;;
45252;SDS011;63171;50.520;30.486;2023-03-23T04:55:18;32.97;;;28.08;;
45252;SDS011;63171;50.520;30.486;2023-03-23T04:56:17;34.65;;;27.38;;
45252;SDS011;63171;50.520;30.486;2023-03-23T04:57:08;35.40;;;28.77;;
45252;SDS011;63171;50.520;30.486;2023-03-23T04:58:02;36.53;;;27.90;;
45252;SDS011;63171;50.520;30.486;2023-03-23T04:59:00;32.13;;;26.77;;
45252;SDS011;63171;50.520;30.486;2023-03-23T05:00:02;33.10;;;26.92;;
45252;SDS011;63171;50.520;30.486;2023-03-23T05:01:02;43.72;;;28.48;;
45252;SDS011;63171;50.520;30.486;2023-03-23T05:01:57;34.47;;;28.40;;
45252;SDS011;63171;50.520;30.486;2023-03-23T05:02:49;36.15;;;30.52;;
45252;SDS011;63171;50.520;30.486;2023-03-23T05:03:43;34.15;;;28.90;;
45252;SDS011;63171;50.520;30.486;2023-03-23T05:04:33;34.97;;;29.15;;
45252;SDS011;63171;50.520;30.486;2023-03-23T05:05:31;38.42;;;31.40;;
45252;SDS011;63171;50.520;30.486;2023-03-23T05:06:27;34.80;;;28.92;;
45252;SDS011;63171;50.520;30.486;2023-03-23T05:07:23;36.85;;;30.45;;
45252;SDS011;63171;50.520;30.486;2023-03-23T05:08:15;34.08;;;29.23;;
45252;SDS011;63171;50.520;30.486;2023-03-23T05:09:09;37.60;;;28.70;;
45252;SDS011;63171;50.520;30.486;2023-03-23T05:09:59;34.65;;;28.23;;
45252;SDS011;63171;50.520;30.486;2023-03-23T05:10:53;29.52;;;25.58;;
45252;SDS011;63171;50.520;30.486;2023-03-23T05:11:48;32.72;;;27.77;;
45252;SDS011;63171;50.520;30.486;2023-03-23T05:12:38;32.15;;;27.88;;
45252;SDS011;63171;50.520;30.486;2023-03-23T05:13:30;32.78;;;26.75;;
45252;SDS011;63171;50.520;30.486;2023-03-23T05:14:22;34.83;;;28.80;;
45252;SDS011;63171;50.520;30.486;2023-03-23T05:15:23;28.92;;;25.88;;
45252;SDS011;63171;50.520;30.486;2023-03-23T05:16:14;39.10;;;28.42;;
45252;SDS011;63171;50.520;30.486;2023-03-23T05:17:04;30.95;;;27.25;;